sensor_id;sensor_type;location;lat;lon;timestamp;P1;durP1;ratioP1;P2;durP2;ratioP2
17832;SDS011;9041;49.718;21.798;2022-10-30T00:02:26;44.28;;;21.58;;
17832;SDS011;9041;49.718;21.798;2022-10-30T00:04:52;20.63;;;10.02;;
17832;SDS011;9041;49.718;21.798;2022-10-30T00:07:19;7.63;;;4.88;;
17832;SDS011;9041;49.718;21.798;2022-10-30T00:09:47;9.70;;;5.05;;
17832;SDS011;9041;49.718;21.798;2022-10-30T00:12:15;7.22;;;4.20;;
17832;SDS011;9041;49.718;21.798;2022-10-30T00:14:41;7.72;;;4.80;;
17832;SDS011;9041;49.718;21.798;2022-10-30T00:17:08;7.55;;;4.35;;
17832;SDS011;9041;49.718;21.798;2022-10-30T00:19:35;9.45;;;3.97;;
17832;SDS011;9041;49.718;21.798;2022-10-30T00:22:02;6.15;;;3.70;;
17832;SDS011;9041;49.718;21.798;2022-10-30T00:24:29;9.32;;;4.63;;
17832;SDS011;9041;49.718;21.798;2022-10-30T00:26:56;10.75;;;5.03;;
17832;SDS011;9041;49.718;21.798;2022-10-30T00:29:24;8.65;;;4.32;;
17832;SDS011;9041;49.718;21.798;2022-10-30T00:31:51;8.48;;;4.15;;
17832;SDS011;9041;49.718;21.798;2022-10-30T00:34:18;9.93;;;4.80;;
17832;SDS011;9041;49.718;21.798;2022-10-30T00:36:45;7.47;;;4.70;;
17832;SDS011;9041;49.718;21.798;2022-10-30T00:39:12;10.05;;;4.80;;
17832;SDS011;9041;49.718;21.798;2022-10-30T00:41:38;10.52;;;5.28;;
17832;SDS011;9041;49.718;21.798;2022-10-30T00:47:01;8.07;;;4.05;;
17832;SDS011;9041;49.718;21.798;2022-10-30T00:49:30;7.07;;;4.60;;
17832;SDS011;9041;49.718;21.798;2022-10-30T00:51:59;12.63;;;5.75;;
17832;SDS011;9041;49.718;21.798;2022-10-30T00:54:26;10.02;;;4.97;;
17832;SDS011;9041;49.718;21.798;2022-10-30T00:56:53;10.05;;;4.63;;
17832;SDS011;9041;49.718;21.798;2022-10-30T00:59:21;12.27;;;5.15;;
17832;SDS011;9041;49.718;21.798;2022-10-30T01:01:50;8.25;;;5.30;;
17832;SDS011;9041;49.718;21.798;2022-10-30T01:04:24;14.32;;;8.13;;
17832;SDS011;9041;49.718;21.798;2022-10-30T01:06:50;12.88;;;5.55;;
17832;SDS011;9041;49.718;21.798;2022-10-30T01:09:19;8.38;;;4.82;;
17832;SDS011;9041;49.718;21.798;2022-10-30T01:11:47;9.20;;;5.05;;
17832;SDS011;9041;49.718;21.798;2022-10-30T01:14:14;8.90;;;4.95;;
17832;SDS011;9041;49.718;21.798;2022-10-30T01:16:45;10.75;;;5.32;;
17832;SDS011;9041;49.718;21.798;2022-10-30T01:19:40;9.63;;;4.63;;
17832;SDS011;9041;49.718;21.798;2022-10-30T01:22:13;9.23;;;4.80;;
17832;SDS011;9041;49.718;21.798;2022-10-30T01:24:53;11.65;;;5.32;;
17832;SDS011;9041;49.718;21.798;2022-10-30T01:27:31;11.18;;;5.75;;
17832;SDS011;9041;49.718;21.798;2022-10-30T01:30:06;9.57;;;5.60;;
17832;SDS011;9041;49.718;21.798;2022-10-30T01:32:44;9.15;;;5.18;;
17832;SDS011;9041;49.718;21.798;2022-10-30T01:35:22;7.80;;;4.88;;
17832;SDS011;9041;49.718;21.798;2022-10-30T01:37:53;12.43;;;5.78;;
17832;SDS011;9041;49.718;21.798;2022-10-30T01:40:22;11.13;;;4.55;;
17832;SDS011;9041;49.718;21.798;2022-10-30T01:42:49;8.85;;;4.93;;
17832;SDS011;9041;49.718;21.798;2022-10-30T01:45:21;13.98;;;6.05;;
17832;SDS011;9041;49.718;21.798;2022-10-30T01:48:04;10.10;;;5.25;;
17832;SDS011;9041;49.718;21.798;2022-10-30T01:50:43;9.25;;;5.00;;
17832;SDS011;9041;49.718;21.798;2022-10-30T01:53:15;14.55;;;5.22;;
17832;SDS011;9041;49.718;21.798;2022-10-30T01:55:53;10.00;;;4.70;;
17832;SDS011;9041;49.718;21.798;2022-10-30T01:58:30;10.52;;;4.80;;
17832;SDS011;9041;49.718;21.798;2022-10-30T02:00:59;8.32;;;4.63;;
17832;SDS011;9041;49.718;21.798;2022-10-30T02:03:26;9.65;;;5.05;;
17832;SDS011;9041;49.718;21.798;2022-10-30T02:05:57;12.82;;;5.55;;
17832;SDS011;9041;49.718;21.798;2022-10-30T02:08:23;8.98;;;5.15;;
17832;SDS011;9041;49.718;21.798;2022-10-30T02:10:51;12.68;;;4.80;;
17832;SDS011;9041;49.718;21.798;2022-10-30T02:13:18;8.45;;;4.68;;
17832;SDS011;9041;49.718;21.798;2022-10-30T02:15:45;6.70;;;3.95;;
17832;SDS011;9041;49.718;21.798;2022-10-30T02:18:15;8.95;;;4.60;;
17832;SDS011;9041;49.718;21.798;2022-10-30T02:20:43;7.47;;;4.22;;
17832;SDS011;9041;49.718;21.798;2022-10-30T02:23:10;8.02;;;4.38;;
17832;SDS011;9041;49.718;21.798;2022-10-30T02:25:43;8.43;;;4.32;;
17832;SDS011;9041;49.718;21.798;2022-10-30T02:28:09;7.68;;;4.30;;
17832;SDS011;9041;49.718;21.798;2022-10-30T02:30:36;8.27;;;4.55;;
17832;SDS011;9041;49.718;21.798;2022-10-30T02:33:03;9.95;;;4.82;;
17832;SDS011;9041;49.718;21.798;2022-10-30T02:35:30;7.97;;;4.18;;
17832;SDS011;9041;49.718;21.798;2022-10-30T02:38:00;11.23;;;5.00;;
17832;SDS011;9041;49.718;21.798;2022-10-30T02:40:27;8.93;;;4.75;;
17832;SDS011;9041;49.718;21.798;2022-10-30T02:42:54;8.13;;;5.10;;
17832;SDS011;9041;49.718;21.798;2022-10-30T02:45:21;8.90;;;4.25;;
17832;SDS011;9041;49.718;21.798;2022-10-30T02:47:48;8.50;;;4.57;;
17832;SDS011;9041;49.718;21.798;2022-10-30T02:50:16;8.73;;;4.55;;
17832;SDS011;9041;49.718;21.798;2022-10-30T02:52:45;8.88;;;4.45;;
17832;SDS011;9041;49.718;21.798;2022-10-30T02:55:14;6.32;;;4.07;;
17832;SDS011;9041;49.718;21.798;2022-10-30T02:57:40;7.60;;;4.30;;
17832;SDS011;9041;49.718;21.798;2022-10-30T03:00:07;6.65;;;3.90;;
17832;SDS011;9041;49.718;21.798;2022-10-30T03:02:35;8.70;;;4.57;;
17832;SDS011;9041;49.718;21.798;2022-10-30T03:05:02;6.65;;;3.92;;
17832;SDS011;9041;49.718;21.798;2022-10-30T03:07:31;5.75;;;3.70;;
17832;SDS011;9041;49.718;21.798;2022-10-30T03:09:58;6.40;;;4.03;;
17832;SDS011;9041;49.718;21.798;2022-10-30T03:12:26;6.65;;;3.83;;
17832;SDS011;9041;49.718;21.798;2022-10-30T03:14:53;5.47;;;3.63;;
17832;SDS011;9041;49.718;21.798;2022-10-30T03:17:19;7.88;;;4.00;;
17832;SDS011;9041;49.718;21.798;2022-10-30T03:19:46;7.18;;;3.80;;
17832;SDS011;9041;49.718;21.798;2022-10-30T03:22:13;6.70;;;3.90;;
17832;SDS011;9041;49.718;21.798;2022-10-30T03:24:40;6.78;;;3.90;;
17832;SDS011;9041;49.718;21.798;2022-10-30T03:27:14;7.00;;;3.85;;
17832;SDS011;9041;49.718;21.798;2022-10-30T03:29:42;11.00;;;3.95;;
17832;SDS011;9041;49.718;21.798;2022-10-30T03:32:16;6.78;;;4.13;;
17832;SDS011;9041;49.718;21.798;2022-10-30T03:34:45;8.25;;;4.18;;
17832;SDS011;9041;49.718;21.798;2022-10-30T03:37:12;7.45;;;3.75;;
17832;SDS011;9041;49.718;21.798;2022-10-30T03:39:38;6.57;;;3.92;;
17832;SDS011;9041;49.718;21.798;2022-10-30T03:42:05;6.18;;;3.88;;
17832;SDS011;9041;49.718;21.798;2022-10-30T03:44:32;10.05;;;4.15;;
17832;SDS011;9041;49.718;21.798;2022-10-30T03:47:00;8.27;;;3.83;;
17832;SDS011;9041;49.718;21.798;2022-10-30T03:49:27;4.93;;;3.70;;
17832;SDS011;9041;49.718;21.798;2022-10-30T03:51:54;5.28;;;3.72;;
17832;SDS011;9041;49.718;21.798;2022-10-30T03:54:20;7.72;;;4.00;;
17832;SDS011;9041;49.718;21.798;2022-10-30T03:56:47;7.50;;;3.90;;
17832;SDS011;9041;49.718;21.798;2022-10-30T03:59:14;11.35;;;3.72;;
17832;SDS011;9041;49.718;21.798;2022-10-30T04:01:41;10.50;;;4.20;;
17832;SDS011;9041;49.718;21.798;2022-10-30T04:04:09;10.73;;;4.18;;
17832;SDS011;9041;49.718;21.798;2022-10-30T04:06:35;9.50;;;4.57;;
17832;SDS011;9041;49.718;21.798;2022-10-30T04:09:02;9.93;;;4.65;;
17832;SDS011;9041;49.718;21.798;2022-10-30T04:11:29;7.47;;;4.55;;
17832;SDS011;9041;49.718;21.798;2022-10-30T04:13:56;6.85;;;4.40;;
17832;SDS011;9041;49.718;21.798;2022-10-30T04:16:22;5.53;;;3.92;;
17832;SDS011;9041;49.718;21.798;2022-10-30T04:18:49;8.10;;;4.50;;
17832;SDS011;9041;49.718;21.798;2022-10-30T04:21:20;6.28;;;4.30;;
17832;SDS011;9041;49.718;21.798;2022-10-30T04:23:47;8.20;;;4.22;;
17832;SDS011;9041;49.718;21.798;2022-10-30T04:26:14;7.40;;;4.65;;
17832;SDS011;9041;49.718;21.798;2022-10-30T04:28:41;6.50;;;4.35;;
17832;SDS011;9041;49.718;21.798;2022-10-30T04:31:08;7.28;;;4.10;;
17832;SDS011;9041;49.718;21.798;2022-10-30T04:33:37;11.52;;;4.80;;
17832;SDS011;9041;49.718;21.798;2022-10-30T04:36:04;7.55;;;4.25;;
17832;SDS011;9041;49.718;21.798;2022-10-30T04:38:33;8.35;;;4.75;;
17832;SDS011;9041;49.718;21.798;2022-10-30T04:41:00;7.13;;;4.25;;
17832;SDS011;9041;49.718;21.798;2022-10-30T04:43:26;8.30;;;4.63;;
17832;SDS011;9041;49.718;21.798;2022-10-30T04:45:53;8.75;;;5.50;;
17832;SDS011;9041;49.718;21.798;2022-10-30T04:48:24;9.60;;;5.60;;
17832;SDS011;9041;49.718;21.798;2022-10-30T04:50:51;8.90;;;5.18;;
17832;SDS011;9041;49.718;21.798;2022-10-30T04:53:18;9.60;;;5.60;;
17832;SDS011;9041;49.718;21.798;2022-10-30T04:55:51;8.77;;;4.97;;
17832;SDS011;9041;49.718;21.798;2022-10-30T04:58:18;13.02;;;5.38;;
17832;SDS011;9041;49.718;21.798;2022-10-30T05:00:45;11.38;;;4.93;;
17832;SDS011;9041;49.718;21.798;2022-10-30T05:03:15;9.80;;;5.45;;
17832;SDS011;9041;49.718;21.798;2022-10-30T05:05:44;12.20;;;4.55;;
17832;SDS011;9041;49.718;21.798;2022-10-30T05:08:11;10.23;;;4.80;;
17832;SDS011;9041;49.718;21.798;2022-10-30T05:10:38;7.60;;;4.57;;
17832;SDS011;9041;49.718;21.798;2022-10-30T05:13:06;9.63;;;5.22;;
17832;SDS011;9041;49.718;21.798;2022-10-30T05:15:35;7.45;;;4.47;;
17832;SDS011;9041;49.718;21.798;2022-10-30T05:18:02;8.23;;;5.30;;
17832;SDS011;9041;49.718;21.798;2022-10-30T05:20:29;7.72;;;5.03;;
17832;SDS011;9041;49.718;21.798;2022-10-30T05:22:56;8.85;;;4.85;;
17832;SDS011;9041;49.718;21.798;2022-10-30T05:25:23;8.70;;;5.00;;
17832;SDS011;9041;49.718;21.798;2022-10-30T05:27:55;7.72;;;4.35;;
17832;SDS011;9041;49.718;21.798;2022-10-30T05:30:24;7.78;;;4.75;;
17832;SDS011;9041;49.718;21.798;2022-10-30T05:32:55;6.97;;;4.60;;
17832;SDS011;9041;49.718;21.798;2022-10-30T05:35:23;8.75;;;5.03;;
17832;SDS011;9041;49.718;21.798;2022-10-30T05:37:49;8.10;;;4.65;;
17832;SDS011;9041;49.718;21.798;2022-10-30T05:40:16;13.93;;;7.18;;
17832;SDS011;9041;49.718;21.798;2022-10-30T05:42:43;22.98;;;10.48;;
17832;SDS011;9041;49.718;21.798;2022-10-30T05:45:11;42.83;;;19.90;;
17832;SDS011;9041;49.718;21.798;2022-10-30T05:47:39;16.58;;;9.02;;
17832;SDS011;9041;49.718;21.798;2022-10-30T05:50:06;17.92;;;9.20;;
17832;SDS011;9041;49.718;21.798;2022-10-30T05:52:34;16.65;;;7.32;;
17832;SDS011;9041;49.718;21.798;2022-10-30T05:55:00;12.25;;;7.18;;
17832;SDS011;9041;49.718;21.798;2022-10-30T05:57:27;12.63;;;6.13;;
17832;SDS011;9041;49.718;21.798;2022-10-30T05:59:54;11.20;;;5.70;;
17832;SDS011;9041;49.718;21.798;2022-10-30T06:02:21;8.80;;;4.72;;
17832;SDS011;9041;49.718;21.798;2022-10-30T06:04:49;7.72;;;4.75;;
17832;SDS011;9041;49.718;21.798;2022-10-30T06:07:16;10.20;;;5.07;;
17832;SDS011;9041;49.718;21.798;2022-10-30T06:09:42;6.63;;;4.30;;
17832;SDS011;9041;49.718;21.798;2022-10-30T06:12:09;8.07;;;4.40;;
17832;SDS011;9041;49.718;21.798;2022-10-30T06:14:36;11.43;;;4.78;;
17832;SDS011;9041;49.718;21.798;2022-10-30T06:17:03;7.22;;;4.68;;
17832;SDS011;9041;49.718;21.798;2022-10-30T06:19:29;8.65;;;4.53;;
17832;SDS011;9041;49.718;21.798;2022-10-30T06:21:57;9.63;;;4.88;;
17832;SDS011;9041;49.718;21.798;2022-10-30T06:24:24;8.10;;;4.63;;
17832;SDS011;9041;49.718;21.798;2022-10-30T06:26:51;8.38;;;4.13;;
17832;SDS011;9041;49.718;21.798;2022-10-30T06:29:18;9.32;;;4.72;;
17832;SDS011;9041;49.718;21.798;2022-10-30T06:31:45;10.30;;;5.13;;
17832;SDS011;9041;49.718;21.798;2022-10-30T06:34:11;8.73;;;5.03;;
17832;SDS011;9041;49.718;21.798;2022-10-30T06:36:38;9.95;;;4.95;;
17832;SDS011;9041;49.718;21.798;2022-10-30T06:39:06;7.75;;;4.57;;
17832;SDS011;9041;49.718;21.798;2022-10-30T06:41:33;9.80;;;4.32;;
17832;SDS011;9041;49.718;21.798;2022-10-30T06:44:01;10.95;;;4.95;;
17832;SDS011;9041;49.718;21.798;2022-10-30T06:46:31;12.10;;;5.22;;
17832;SDS011;9041;49.718;21.798;2022-10-30T06:48:58;12.88;;;5.32;;
17832;SDS011;9041;49.718;21.798;2022-10-30T06:51:25;14.80;;;5.50;;
17832;SDS011;9041;49.718;21.798;2022-10-30T06:53:52;11.25;;;5.38;;
17832;SDS011;9041;49.718;21.798;2022-10-30T06:56:20;13.02;;;4.50;;
17832;SDS011;9041;49.718;21.798;2022-10-30T06:58:50;7.75;;;4.50;;
17832;SDS011;9041;49.718;21.798;2022-10-30T07:01:17;8.90;;;4.30;;
17832;SDS011;9041;49.718;21.798;2022-10-30T07:03:43;9.07;;;4.05;;
17832;SDS011;9041;49.718;21.798;2022-10-30T07:06:10;7.32;;;4.10;;
17832;SDS011;9041;49.718;21.798;2022-10-30T07:08:37;8.13;;;3.83;;
17832;SDS011;9041;49.718;21.798;2022-10-30T07:11:04;6.65;;;4.03;;
17832;SDS011;9041;49.718;21.798;2022-10-30T07:13:32;6.50;;;4.13;;
17832;SDS011;9041;49.718;21.798;2022-10-30T07:15:59;8.00;;;3.92;;
17832;SDS011;9041;49.718;21.798;2022-10-30T07:18:28;7.88;;;3.70;;
17832;SDS011;9041;49.718;21.798;2022-10-30T07:20:57;6.25;;;3.53;;
17832;SDS011;9041;49.718;21.798;2022-10-30T07:23:24;5.75;;;3.90;;
17832;SDS011;9041;49.718;21.798;2022-10-30T07:25:51;10.60;;;3.97;;
17832;SDS011;9041;49.718;21.798;2022-10-30T07:28:17;9.68;;;4.57;;
17832;SDS011;9041;49.718;21.798;2022-10-30T07:30:45;8.98;;;4.65;;
17832;SDS011;9041;49.718;21.798;2022-10-30T07:33:12;12.43;;;4.55;;
17832;SDS011;9041;49.718;21.798;2022-10-30T07:35:39;9.95;;;4.80;;
17832;SDS011;9041;49.718;21.798;2022-10-30T07:38:06;13.38;;;5.00;;
17832;SDS011;9041;49.718;21.798;2022-10-30T07:40:35;10.18;;;5.20;;
17832;SDS011;9041;49.718;21.798;2022-10-30T07:43:02;8.68;;;4.80;;
17832;SDS011;9041;49.718;21.798;2022-10-30T07:45:30;5.88;;;4.30;;
17832;SDS011;9041;49.718;21.798;2022-10-30T07:47:58;9.15;;;5.30;;
17832;SDS011;9041;49.718;21.798;2022-10-30T07:50:25;8.30;;;4.97;;
17832;SDS011;9041;49.718;21.798;2022-10-30T07:52:52;10.80;;;5.05;;
17832;SDS011;9041;49.718;21.798;2022-10-30T07:55:19;74.32;;;27.15;;
17832;SDS011;9041;49.718;21.798;2022-10-30T07:57:45;53.45;;;20.63;;
17832;SDS011;9041;49.718;21.798;2022-10-30T08:00:13;21.17;;;8.80;;
17832;SDS011;9041;49.718;21.798;2022-10-30T08:02:40;10.73;;;6.13;;
17832;SDS011;9041;49.718;21.798;2022-10-30T08:05:08;11.95;;;6.13;;
17832;SDS011;9041;49.718;21.798;2022-10-30T08:07:36;12.18;;;6.47;;
17832;SDS011;9041;49.718;21.798;2022-10-30T08:10:05;11.95;;;5.65;;
17832;SDS011;9041;49.718;21.798;2022-10-30T08:12:33;9.00;;;4.90;;
17832;SDS011;9041;49.718;21.798;2022-10-30T08:15:00;11.50;;;4.80;;
17832;SDS011;9041;49.718;21.798;2022-10-30T08:17:26;6.50;;;3.83;;
17832;SDS011;9041;49.718;21.798;2022-10-30T08:19:53;5.95;;;3.85;;
17832;SDS011;9041;49.718;21.798;2022-10-30T08:22:22;5.20;;;3.47;;
17832;SDS011;9041;49.718;21.798;2022-10-30T08:24:49;8.00;;;4.60;;
17832;SDS011;9041;49.718;21.798;2022-10-30T08:27:16;6.55;;;3.65;;
17832;SDS011;9041;49.718;21.798;2022-10-30T08:29:43;7.07;;;3.72;;
17832;SDS011;9041;49.718;21.798;2022-10-30T08:32:09;5.93;;;3.42;;
17832;SDS011;9041;49.718;21.798;2022-10-30T08:34:36;8.57;;;3.53;;
17832;SDS011;9041;49.718;21.798;2022-10-30T08:37:03;15.50;;;3.75;;
17832;SDS011;9041;49.718;21.798;2022-10-30T08:39:31;11.82;;;3.38;;
17832;SDS011;9041;49.718;21.798;2022-10-30T08:41:58;10.23;;;5.65;;
17832;SDS011;9041;49.718;21.798;2022-10-30T08:44:25;7.68;;;3.55;;
17832;SDS011;9041;49.718;21.798;2022-10-30T08:46:52;7.45;;;3.20;;
17832;SDS011;9041;49.718;21.798;2022-10-30T08:49:20;6.97;;;3.70;;
17832;SDS011;9041;49.718;21.798;2022-10-30T08:51:47;8.15;;;3.70;;
17832;SDS011;9041;49.718;21.798;2022-10-30T08:54:14;10.48;;;3.88;;
17832;SDS011;9041;49.718;21.798;2022-10-30T08:56:42;7.57;;;2.85;;
17832;SDS011;9041;49.718;21.798;2022-10-30T08:59:09;10.00;;;3.50;;
17832;SDS011;9041;49.718;21.798;2022-10-30T09:01:35;15.32;;;7.05;;
17832;SDS011;9041;49.718;21.798;2022-10-30T09:04:02;12.80;;;4.43;;
17832;SDS011;9041;49.718;21.798;2022-10-30T09:06:29;5.32;;;3.33;;
17832;SDS011;9041;49.718;21.798;2022-10-30T09:09:00;10.15;;;4.18;;
17832;SDS011;9041;49.718;21.798;2022-10-30T09:11:27;5.93;;;3.38;;
17832;SDS011;9041;49.718;21.798;2022-10-30T09:13:55;6.78;;;3.22;;
17832;SDS011;9041;49.718;21.798;2022-10-30T09:16:21;6.60;;;3.25;;
17832;SDS011;9041;49.718;21.798;2022-10-30T09:18:48;4.60;;;2.50;;
17832;SDS011;9041;49.718;21.798;2022-10-30T09:21:15;7.25;;;3.10;;
17832;SDS011;9041;49.718;21.798;2022-10-30T09:23:42;6.53;;;3.30;;
17832;SDS011;9041;49.718;21.798;2022-10-30T09:26:09;7.75;;;3.03;;
17832;SDS011;9041;49.718;21.798;2022-10-30T09:28:36;7.82;;;3.22;;
17832;SDS011;9041;49.718;21.798;2022-10-30T09:31:04;4.78;;;2.78;;
17832;SDS011;9041;49.718;21.798;2022-10-30T09:33:31;4.75;;;2.67;;
17832;SDS011;9041;49.718;21.798;2022-10-30T09:35:58;6.22;;;3.17;;
17832;SDS011;9041;49.718;21.798;2022-10-30T09:38:26;5.50;;;3.05;;
17832;SDS011;9041;49.718;21.798;2022-10-30T09:40:58;7.13;;;3.17;;
17832;SDS011;9041;49.718;21.798;2022-10-30T09:43:36;5.07;;;2.85;;
17832;SDS011;9041;49.718;21.798;2022-10-30T09:46:16;10.77;;;4.85;;
17832;SDS011;9041;49.718;21.798;2022-10-30T09:49:04;73.82;;;23.92;;
17832;SDS011;9041;49.718;21.798;2022-10-30T09:51:41;53.85;;;18.38;;
17832;SDS011;9041;49.718;21.798;2022-10-30T09:54:26;17.92;;;7.43;;
17832;SDS011;9041;49.718;21.798;2022-10-30T09:57:03;15.02;;;7.82;;
17832;SDS011;9041;49.718;21.798;2022-10-30T09:59:35;15.02;;;6.78;;
17832;SDS011;9041;49.718;21.798;2022-10-30T10:02:18;10.60;;;4.93;;
17832;SDS011;9041;49.718;21.798;2022-10-30T10:04:51;22.67;;;10.65;;
17832;SDS011;9041;49.718;21.798;2022-10-30T10:07:20;19.30;;;9.18;;
17832;SDS011;9041;49.718;21.798;2022-10-30T10:09:53;10.15;;;5.57;;
17832;SDS011;9041;49.718;21.798;2022-10-30T10:12:22;7.82;;;4.40;;
17832;SDS011;9041;49.718;21.798;2022-10-30T10:14:51;9.07;;;4.22;;
17832;SDS011;9041;49.718;21.798;2022-10-30T10:17:23;7.55;;;3.70;;
17832;SDS011;9041;49.718;21.798;2022-10-30T10:19:54;7.45;;;3.75;;
17832;SDS011;9041;49.718;21.798;2022-10-30T10:22:24;9.80;;;3.67;;
17832;SDS011;9041;49.718;21.798;2022-10-30T10:24:52;8.40;;;3.03;;
17832;SDS011;9041;49.718;21.798;2022-10-30T10:27:22;4.13;;;2.78;;
17832;SDS011;9041;49.718;21.798;2022-10-30T10:29:57;7.25;;;3.33;;
17832;SDS011;9041;49.718;21.798;2022-10-30T10:32:33;6.05;;;2.72;;
17832;SDS011;9041;49.718;21.798;2022-10-30T10:38:01;6.90;;;3.20;;
17832;SDS011;9041;49.718;21.798;2022-10-30T10:40:34;6.75;;;3.13;;
17832;SDS011;9041;49.718;21.798;2022-10-30T10:43:13;5.50;;;3.08;;
17832;SDS011;9041;49.718;21.798;2022-10-30T10:45:52;5.22;;;2.70;;
17832;SDS011;9041;49.718;21.798;2022-10-30T10:48:37;3.88;;;2.63;;
17832;SDS011;9041;49.718;21.798;2022-10-30T10:51:15;13.75;;;6.38;;
17832;SDS011;9041;49.718;21.798;2022-10-30T10:53:43;7.05;;;3.25;;
17832;SDS011;9041;49.718;21.798;2022-10-30T10:56:12;4.40;;;2.97;;
17832;SDS011;9041;49.718;21.798;2022-10-30T10:58:42;4.80;;;2.70;;
17832;SDS011;9041;49.718;21.798;2022-10-30T11:01:12;6.85;;;3.35;;
17832;SDS011;9041;49.718;21.798;2022-10-30T11:03:51;6.80;;;3.20;;
17832;SDS011;9041;49.718;21.798;2022-10-30T11:06:21;9.43;;;3.33;;
17832;SDS011;9041;49.718;21.798;2022-10-30T11:08:56;11.70;;;3.50;;
17832;SDS011;9041;49.718;21.798;2022-10-30T11:11:26;5.43;;;3.15;;
17832;SDS011;9041;49.718;21.798;2022-10-30T11:13:53;5.53;;;3.10;;
17832;SDS011;9041;49.718;21.798;2022-10-30T11:16:22;4.22;;;3.00;;
17832;SDS011;9041;49.718;21.798;2022-10-30T11:18:54;5.82;;;3.08;;
17832;SDS011;9041;49.718;21.798;2022-10-30T11:21:24;6.50;;;3.08;;
17832;SDS011;9041;49.718;21.798;2022-10-30T11:23:52;6.38;;;3.05;;
17832;SDS011;9041;49.718;21.798;2022-10-30T11:26:32;7.60;;;3.22;;
17832;SDS011;9041;49.718;21.798;2022-10-30T11:29:11;9.20;;;4.43;;
17832;SDS011;9041;49.718;21.798;2022-10-30T11:31:39;5.97;;;3.30;;
17832;SDS011;9041;49.718;21.798;2022-10-30T11:36:57;6.28;;;3.40;;
17832;SDS011;9041;49.718;21.798;2022-10-30T11:39:25;13.15;;;4.90;;
17832;SDS011;9041;49.718;21.798;2022-10-30T11:41:59;8.52;;;4.00;;
17832;SDS011;9041;49.718;21.798;2022-10-30T11:44:30;7.28;;;4.25;;
17832;SDS011;9041;49.718;21.798;2022-10-30T11:46:59;7.20;;;3.35;;
17832;SDS011;9041;49.718;21.798;2022-10-30T11:49:28;8.00;;;3.33;;
17832;SDS011;9041;49.718;21.798;2022-10-30T11:52:00;9.30;;;3.45;;
17832;SDS011;9041;49.718;21.798;2022-10-30T11:54:28;5.82;;;3.10;;
17832;SDS011;9041;49.718;21.798;2022-10-30T11:56:54;12.98;;;4.30;;
17832;SDS011;9041;49.718;21.798;2022-10-30T11:59:22;8.70;;;3.25;;
17832;SDS011;9041;49.718;21.798;2022-10-30T12:02:00;7.28;;;3.88;;
17832;SDS011;9041;49.718;21.798;2022-10-30T12:04:28;9.40;;;3.72;;
17832;SDS011;9041;49.718;21.798;2022-10-30T12:07:08;10.35;;;3.97;;
17832;SDS011;9041;49.718;21.798;2022-10-30T12:09:43;10.15;;;4.32;;
17832;SDS011;9041;49.718;21.798;2022-10-30T12:12:11;11.65;;;3.78;;
17832;SDS011;9041;49.718;21.798;2022-10-30T12:14:41;13.35;;;4.40;;
17832;SDS011;9041;49.718;21.798;2022-10-30T12:17:08;8.57;;;3.58;;
17832;SDS011;9041;49.718;21.798;2022-10-30T12:19:43;9.30;;;3.53;;
17832;SDS011;9041;49.718;21.798;2022-10-30T12:22:12;19.52;;;4.00;;
17832;SDS011;9041;49.718;21.798;2022-10-30T12:24:49;14.85;;;4.05;;
17832;SDS011;9041;49.718;21.798;2022-10-30T12:27:16;21.80;;;4.05;;
17832;SDS011;9041;49.718;21.798;2022-10-30T12:29:57;8.40;;;4.22;;
17832;SDS011;9041;49.718;21.798;2022-10-30T12:32:36;6.78;;;3.67;;
17832;SDS011;9041;49.718;21.798;2022-10-30T12:35:08;18.25;;;4.88;;
17832;SDS011;9041;49.718;21.798;2022-10-30T12:37:47;5.95;;;3.60;;
17832;SDS011;9041;49.718;21.798;2022-10-30T12:40:18;12.35;;;4.15;;
17832;SDS011;9041;49.718;21.798;2022-10-30T12:42:49;13.80;;;4.93;;
17832;SDS011;9041;49.718;21.798;2022-10-30T12:45:19;14.57;;;6.25;;
17832;SDS011;9041;49.718;21.798;2022-10-30T12:47:49;13.70;;;5.00;;
17832;SDS011;9041;49.718;21.798;2022-10-30T12:50:20;14.52;;;6.25;;
17832;SDS011;9041;49.718;21.798;2022-10-30T12:52:55;15.20;;;4.75;;
17832;SDS011;9041;49.718;21.798;2022-10-30T12:55:24;24.27;;;10.35;;
17832;SDS011;9041;49.718;21.798;2022-10-30T12:57:55;12.07;;;6.05;;
17832;SDS011;9041;49.718;21.798;2022-10-30T13:00:29;11.73;;;6.05;;
17832;SDS011;9041;49.718;21.798;2022-10-30T13:03:05;13.23;;;4.05;;
17832;SDS011;9041;49.718;21.798;2022-10-30T13:05:46;9.13;;;3.92;;
17832;SDS011;9041;49.718;21.798;2022-10-30T13:08:16;7.55;;;3.30;;
17832;SDS011;9041;49.718;21.798;2022-10-30T13:10:47;5.43;;;3.33;;
17832;SDS011;9041;49.718;21.798;2022-10-30T13:13:17;10.77;;;3.97;;
17832;SDS011;9041;49.718;21.798;2022-10-30T13:15:47;5.78;;;3.50;;
17832;SDS011;9041;49.718;21.798;2022-10-30T13:18:16;9.20;;;4.35;;
17832;SDS011;9041;49.718;21.798;2022-10-30T13:20:55;9.15;;;4.93;;
17832;SDS011;9041;49.718;21.798;2022-10-30T13:23:28;10.25;;;4.63;;
17832;SDS011;9041;49.718;21.798;2022-10-30T13:26:02;8.00;;;4.55;;
17832;SDS011;9041;49.718;21.798;2022-10-30T13:28:34;8.90;;;4.40;;
17832;SDS011;9041;49.718;21.798;2022-10-30T13:31:08;9.32;;;4.35;;
17832;SDS011;9041;49.718;21.798;2022-10-30T13:33:41;6.72;;;4.57;;
17832;SDS011;9041;49.718;21.798;2022-10-30T13:36:10;13.55;;;5.38;;
17832;SDS011;9041;49.718;21.798;2022-10-30T13:38:44;11.75;;;5.60;;
17832;SDS011;9041;49.718;21.798;2022-10-30T13:41:17;11.65;;;5.88;;
17832;SDS011;9041;49.718;21.798;2022-10-30T13:43:51;13.60;;;5.53;;
17832;SDS011;9041;49.718;21.798;2022-10-30T13:49:25;10.27;;;5.72;;
17832;SDS011;9041;49.718;21.798;2022-10-30T13:52:04;13.35;;;5.22;;
17832;SDS011;9041;49.718;21.798;2022-10-30T13:54:36;12.45;;;4.97;;
17832;SDS011;9041;49.718;21.798;2022-10-30T13:57:07;9.48;;;5.20;;
17832;SDS011;9041;49.718;21.798;2022-10-30T13:59:51;10.32;;;4.85;;
17832;SDS011;9041;49.718;21.798;2022-10-30T14:02:32;11.32;;;6.00;;
17832;SDS011;9041;49.718;21.798;2022-10-30T14:05:11;13.10;;;5.47;;
17832;SDS011;9041;49.718;21.798;2022-10-30T14:07:41;12.65;;;5.75;;
17832;SDS011;9041;49.718;21.798;2022-10-30T14:10:14;12.68;;;5.70;;
17832;SDS011;9041;49.718;21.798;2022-10-30T14:12:49;11.60;;;5.53;;
17832;SDS011;9041;49.718;21.798;2022-10-30T14:15:31;14.85;;;5.70;;
17832;SDS011;9041;49.718;21.798;2022-10-30T14:20:51;12.18;;;5.65;;
17832;SDS011;9041;49.718;21.798;2022-10-30T14:23:21;15.05;;;6.38;;
17832;SDS011;9041;49.718;21.798;2022-10-30T14:28:40;11.25;;;5.78;;
17832;SDS011;9041;49.718;21.798;2022-10-30T14:31:08;49.78;;;7.28;;
17832;SDS011;9041;49.718;21.798;2022-10-30T14:33:49;50.78;;;9.57;;
17832;SDS011;9041;49.718;21.798;2022-10-30T14:36:20;12.20;;;6.20;;
17832;SDS011;9041;49.718;21.798;2022-10-30T14:38:54;11.52;;;5.78;;
17832;SDS011;9041;49.718;21.798;2022-10-30T14:41:36;9.65;;;5.35;;
17832;SDS011;9041;49.718;21.798;2022-10-30T14:44:18;12.35;;;6.18;;
17832;SDS011;9041;49.718;21.798;2022-10-30T14:46:56;11.93;;;6.10;;
17832;SDS011;9041;49.718;21.798;2022-10-30T14:49:42;13.63;;;5.63;;
17832;SDS011;9041;49.718;21.798;2022-10-30T14:52:19;13.52;;;6.25;;
17832;SDS011;9041;49.718;21.798;2022-10-30T14:54:50;11.23;;;6.10;;
17832;SDS011;9041;49.718;21.798;2022-10-30T15:03:22;25.63;;;10.68;;
17832;SDS011;9041;49.718;21.798;2022-10-30T15:05:56;24.33;;;8.82;;
17832;SDS011;9041;49.718;21.798;2022-10-30T15:08:32;25.65;;;11.00;;
17832;SDS011;9041;49.718;21.798;2022-10-30T15:11:26;20.40;;;9.77;;
17832;SDS011;9041;49.718;21.798;2022-10-30T15:14:00;18.35;;;7.85;;
17832;SDS011;9041;49.718;21.798;2022-10-30T15:16:29;18.60;;;7.32;;
17832;SDS011;9041;49.718;21.798;2022-10-30T15:19:00;23.45;;;8.27;;
17832;SDS011;9041;49.718;21.798;2022-10-30T15:21:28;18.48;;;7.75;;
17832;SDS011;9041;49.718;21.798;2022-10-30T15:23:58;18.00;;;7.75;;